Time;durP1;ratioP1;P1;durP2;ratioP2;P2;SDS_P1;SDS_P2;PMS_P1;PMS_P2;Temp;Humidity;BMP_temperature;BMP_pressure;BME280_temperature;BME280_humidity;BME280_pressure;Samples;Min_cycle;Max_cycle;Signal;HPM_P1;HPM_P2
2022/01/04 00:02:24;;;;;;;;;;;11.00;99.90;;;11.45;100.00;99473.34;4952369;28;19930;-83
2022/01/04 00:04:51;;;;;;;;;;;11.00;99.90;;;11.46;100.00;99484.72;4950141;28;19965;-83
2022/01/04 00:07:18;;;;;;;;;;;11.00;99.90;;;11.44;100.00;99478.69;4949091;28;19941;-82
2022/01/04 00:09:49;;;;;;;;;;;11.00;99.90;;;11.41;100.00;99471.78;4949357;28;19940;-84
2022/01/04 00:15:03;;;;;;;;;;;11.10;99.90;;;11.58;100.00;99459.66;4967163;28;19926;-82
2022/01/04 00:17:31;;;;;;;;;;;11.10;99.90;;;11.61;100.00;99454.25;4964384;28;19930;-81
2022/01/04 00:19:58;;;;;;;;;;;11.90;99.90;;;11.57;100.00;99447.44;4943208;28;19930;-81
2022/01/04 00:22:25;;;;;;;;;;;11.20;99.90;;;11.68;100.00;99444.31;4956517;28;19940;-82
2022/01/04 00:24:51;;;;;;;;;;;11.10;99.90;;;11.58;100.00;99438.59;4957460;28;20347;-81
2022/01/04 00:27:18;;;;;;;;;;;11.20;99.90;;;11.52;100.00;99423.03;4959010;28;20518;-82
2022/01/04 00:29:45;;;;;;;;;;;11.60;99.90;;;11.60;100.00;99428.84;4943396;28;19980;-81
2022/01/04 00:32:12;;;;;;;;;;;8.60;99.90;;;11.57;100.00;99434.25;4959129;28;19936;-82
2022/01/04 00:34:41;;;;;;;;;;;11.20;99.90;;;11.49;100.00;99418.78;4973750;28;19930;-81
2022/01/04 00:37:08;;;;;;;;;;;11.30;99.90;;;11.50;100.00;99417.84;4958989;28;19936;-81
2022/01/04 00:39:35;;;;;;;;;;;11.30;99.90;;;11.53;100.00;99401.91;4956517;28;20617;-82
2022/01/04 00:42:03;;;;;;;;;;;11.10;99.90;;;11.49;100.00;99395.91;4973966;28;20095;-82
2022/01/04 00:44:30;;;;;;;;;;;11.50;99.90;;;11.52;100.00;99397.56;4956273;28;19973;-81
2022/01/04 00:46:59;;;;;;;;;;;11.20;99.90;;;11.60;100.00;99390.16;4955932;28;19926;-82
2022/01/04 00:49:26;;;;;;;;;;;11.70;99.90;;;11.63;100.00;99389.19;4961522;28;19961;-82
2022/01/04 00:51:53;;;;;;;;;;;10.20;99.90;;;11.49;100.00;99385.38;4960439;28;19930;-81
2022/01/04 00:54:21;;;;;;;;;;;11.10;99.90;;;11.57;100.00;99379.75;4946047;28;19931;-82
2022/01/04 00:56:49;;;;;;;;;;;11.10;99.90;;;11.52;100.00;99371.22;4938888;29;19937;-80
2022/01/04 00:59:19;;;;;;;;;;;11.50;99.90;;;11.58;100.00;99378.00;4937621;29;19938;-82
2022/01/04 01:01:46;;;;;;;;;;;11.20;99.90;;;11.51;100.00;99358.09;4955630;28;19937;-82
2022/01/04 01:04:14;;;;;;;;;;;11.20;99.90;;;11.54;100.00;99371.13;4943414;28;19926;-82
2022/01/04 01:06:41;;;;;;;;;;;11.10;99.90;;;11.50;100.00;99365.16;4958405;28;19937;-81
2022/01/04 01:09:08;;;;;;;;;;;9.70;99.90;;;11.54;100.00;99350.94;4960593;28;19942;-81
2022/01/04 01:11:35;;;;;;;;;;;13.10;99.90;;;11.52;100.00;99346.63;4962875;28;19997;-83
2022/01/04 01:14:02;;;;;;;;;;;11.20;99.90;;;11.52;100.00;99352.78;4964041;28;19926;-81
2022/01/04 01:16:29;;;;;;;;;;;11.20;99.90;;;11.49;100.00;99334.47;4953182;28;20418;-81
2022/01/04 01:18:56;;;;;;;;;;;11.30;99.90;;;11.57;100.00;99331.50;4926050;29;20401;-82
2022/01/04 01:21:23;;;;;;;;;;;11.00;99.90;;;11.54;100.00;99326.34;4942609;29;19931;-81
2022/01/04 01:23:50;;;;;;;;;;;11.20;99.90;;;11.53;100.00;99322.00;4936422;29;19957;-82
2022/01/04 01:26:17;;;;;;;;;;;11.20;99.90;;;11.47;100.00;99331.03;4939524;29;20430;-84
2022/01/04 01:28:44;;;;;;;;;;;11.20;99.90;;;11.52;100.00;99313.25;4925744;28;19927;-82
2022/01/04 01:31:11;;;;;;;;;;;11.10;99.90;;;11.51;100.00;99286.97;4924560;29;20059;-83
2022/01/04 01:33:39;;;;;;;;;;;11.20;99.90;;;11.55;100.00;99289.41;4938436;29;19930;-83
2022/01/04 01:36:06;;;;;;;;;;;9.10;99.90;;;11.54;100.00;99292.97;4938247;29;19942;-82
2022/01/04 01:38:33;;;;;;;;;;;11.10;99.90;;;11.54;100.00;99300.00;4938005;29;19931;-81
2022/01/04 01:41:01;;;;;;;;;;;11.00;99.90;;;11.54;100.00;99289.47;4952765;29;19937;-83
2022/01/04 01:43:29;;;;;;;;;;;13.00;99.90;;;11.51;100.00;99290.47;4935676;29;19938;-82
2022/01/04 01:45:57;;;;;;;;;;;11.10;99.90;;;11.48;100.00;99278.28;4951381;28;20307;-81
2022/01/04 01:48:25;;;;;;;;;;;11.10;99.90;;;11.54;100.00;99281.56;4920311;29;19937;-82
2022/01/04 01:50:52;;;;;;;;;;;11.10;99.90;;;11.58;100.00;99283.16;4919379;29;19969;-81
2022/01/04 01:53:20;;;;;;;;;;;11.10;99.90;;;11.47;100.00;99275.72;4930696;29;19953;-82
2022/01/04 01:55:47;;;;;;;;;;;11.20;99.90;;;11.49;100.00;99266.84;4934042;29;20080;-81
2022/01/04 01:58:14;;;;;;;;;;;11.10;99.90;;;11.54;100.00;99274.53;4931858;29;20021;-81
2022/01/04 02:00:42;;;;;;;;;;;11.30;99.90;;;11.60;100.00;99250.53;4931161;29;20033;-81
2022/01/04 02:03:09;;;;;;;;;;;11.10;99.90;;;11.56;100.00;99256.03;4933160;29;19927;-80
2022/01/04 02:05:36;;;;;;;;;;;11.10;99.90;;;11.59;100.00;99242.72;4924297;29;20407;-81
2022/01/04 02:08:04;;;;;;;;;;;11.50;99.90;;;11.48;100.00;99225.63;4918491;29;20462;-82
2022/01/04 02:10:32;;;;;;;;;;;11.10;99.90;;;11.61;100.00;99228.53;4933795;29;19936;-81
2022/01/04 02:12:59;;;;;;;;;;;11.10;99.90;;;11.53;100.00;99225.41;4933678;29;20395;-82
2022/01/04 02:15:29;;;;;;;;;;;10.70;99.90;;;11.61;100.00;99232.97;4933196;29;19930;-82
2022/01/04 02:17:56;;;;;;;;;;;11.10;99.90;;;11.52;100.00;99221.06;4934010;29;20697;-82
2022/01/04 02:20:23;;;;;;;;;;;11.10;99.90;;;11.58;100.00;99207.59;4933143;29;19938;-82
2022/01/04 02:22:50;;;;;;;;;;;11.10;99.90;;;11.56;100.00;99206.00;4917415;29;19938;-82
2022/01/04 02:25:18;;;;;;;;;;;11.70;99.90;;;11.50;100.00;99199.22;4933567;29;19937;-82
2022/01/04 02:27:45;;;;;;;;;;;11.20;99.90;;;11.55;100.00;99196.34;4933368;29;20049;-82
2022/01/04 02:30:15;;;;;;;;;;;11.10;99.90;;;11.48;100.00;99187.91;4933907;28;19930;-82
2022/01/04 02:32:44;;;;;;;;;;;11.00;99.90;;;11.46;100.00;99185.31;4917573;29;20037;-81
2022/01/04 02:35:13;;;;;;;;;;;11.00;99.90;;;11.49;100.00;99184.34;4917604;28;19937;-82
2022/01/04 02:37:41;;;;;;;;;;;11.60;99.90;;;11.39;100.00;99173.34;4934500;28;19933;-81
2022/01/04 02:40:08;;;;;;;;;;;10.90;99.90;;;11.39;100.00;99161.97;4917683;28;19977;-81
2022/01/04 02:42:35;;;;;;;;;;;11.00;99.90;;;11.40;100.00;99167.19;4932204;29;20393;-83
2022/01/04 02:45:03;;;;;;;;;;;11.00;99.90;;;11.32;100.00;99167.56;4931081;29;19937;-85
2022/01/04 02:47:33;;;;;;;;;;;10.90;99.90;;;11.40;100.00;99171.59;4931633;29;19930;-83
2022/01/04 02:50:00;;;;;;;;;;;10.90;99.90;;;11.29;100.00;99164.19;4930520;29;20407;-81
2022/01/04 02:52:27;;;;;;;;;;;13.20;99.90;;;11.25;100.00;99163.47;4929803;29;20037;-86
2022/01/04 02:54:54;;;;;;;;;;;10.90;99.90;;;11.35;100.00;99156.88;4930201;29;20635;-84
2022/01/04 02:57:22;;;;;;;;;;;12.90;99.90;;;11.30;100.00;99150.09;4946237;29;19930;-85
2022/01/04 02:59:48;;;;;;;;;;;10.80;99.90;;;11.27;100.00;99142.34;4946517;28;19939;-85
2022/01/04 03:02:16;;;;;;;;;;;10.90;99.90;;;11.24;100.00;99130.16;4962034;28;20031;-84
2022/01/04 03:04:43;;;;;;;;;;;10.80;99.90;;;11.30;100.00;99140.41;4945090;29;19931;-85
2022/01/04 03:07:10;;;;;;;;;;;10.80;99.90;;;11.34;100.00;99134.09;4935404;28;20575;-86
2022/01/04 03:09:37;;;;;;;;;;;10.80;99.90;;;11.26;100.00;99128.31;4936895;28;19961;-84
2022/01/04 03:12:06;;;;;;;;;;;10.90;99.90;;;11.37;100.00;99132.25;4935944;28;20398;-83
2022/01/04 03:14:34;;;;;;;;;;;10.80;99.90;;;11.32;100.00;99127.19;4968114;28;19930;-83
2022/01/04 03:17:01;;;;;;;;;;;10.80;99.90;;;11.30;100.00;99110.59;4956594;28;19992;-85
2022/01/04 03:19:29;;;;;;;;;;;10.80;99.90;;;11.23;100.00;99112.66;4969469;28;19960;-83
2022/01/04 03:21:56;;;;;;;;;;;10.70;99.90;;;11.30;100.00;99103.53;4939651;28;19942;-83
2022/01/04 03:24:23;;;;;;;;;;;13.40;99.90;;;11.25;100.00;99108.19;4951722;28;20327;-84
2022/01/04 03:26:50;;;;;;;;;;;10.90;99.90;;;11.26;100.00;99090.63;4951536;28;20086;-82
2022/01/04 03:29:17;;;;;;;;;;;13.20;99.90;;;11.30;100.00;99090.38;4935497;28;19930;-83
2022/01/04 03:31:44;;;;;;;;;;;10.90;99.90;;;11.24;100.00;99074.88;4950715;28;20722;-84
2022/01/04 03:34:12;;;;;;;;;;;10.80;99.90;;;11.24;100.00;99072.25;4949765;28;19956;-83
2022/01/04 03:36:40;;;;;;;;;;;10.80;99.90;;;11.24;100.00;99066.97;4951600;28;19930;-82
2022/01/04 03:39:10;;;;;;;;;;;11.10;99.90;;;11.32;100.00;99072.75;4958309;28;20384;-82
2022/01/04 03:41:40;;;;;;;;;;;8.80;99.90;;;11.31;100.00;99065.75;4941167;28;19930;-83
2022/01/04 03:44:10;;;;;;;;;;;11.80;99.90;;;11.23;100.00;99060.00;4956450;28;20017;-83
2022/01/04 03:46:37;;;;;;;;;;;10.90;99.90;;;11.25;100.00;99049.44;4954841;28;19933;-82
2022/01/04 03:49:04;;;;;;;;;;;10.80;99.90;;;11.31;100.00;99043.84;4953664;28;20049;-81
2022/01/04 03:51:31;;;;;;;;;;;11.30;99.90;;;11.30;100.00;99042.16;4959499;28;20019;-80
2022/01/04 03:54:02;;;;;;;;;;;12.90;99.90;;;11.30;100.00;99026.34;4946347;28;20658;-82
2022/01/04 03:56:29;;;;;;;;;;;10.50;99.90;;;11.25;100.00;99041.53;4960850;28;20020;-82
2022/01/04 03:58:56;;;;;;;;;;;10.80;99.90;;;11.17;100.00;99031.38;4960246;28;19945;-82
2022/01/04 04:01:23;;;;;;;;;;;10.80;99.90;;;11.24;100.00;99027.50;4976568;28;20045;-81
2022/01/04 04:03:50;;;;;;;;;;;10.70;99.90;;;11.19;100.00;99024.25;4959472;28;19993;-81
2022/01/04 04:06:17;;;;;;;;;;;8.70;99.90;;;11.20;100.00;99004.88;4976534;28;20318;-79
2022/01/04 04:08:44;;;;;;;;;;;10.80;99.90;;;11.21;100.00;99009.22;4943864;28;20267;-80
2022/01/04 04:11:11;;;;;;;;;;;10.80;99.90;;;11.18;100.00;98993.56;4974781;28;20028;-83
2022/01/04 04:13:38;;;;;;;;;;;12.50;99.90;;;11.17;100.00;98995.34;4940904;28;19949;-82
2022/01/04 04:16:05;;;;;;;;;;;10.70;99.90;;;11.15;100.00;98991.94;4957934;28;19930;-83
2022/01/04 04:18:32;;;;;;;;;;;11.30;99.90;;;11.17;100.00;98995.34;4957406;28;19930;-81
2022/01/04 04:20:59;;;;;;;;;;;9.50;99.90;;;11.04;100.00;98981.06;4958385;28;19959;-82
2022/01/04 04:23:26;;;;;;;;;;;11.00;99.90;;;11.12;100.00;98978.06;4942184;28;19934;-83
2022/01/04 04:25:53;;;;;;;;;;;10.70;99.90;;;11.10;100.00;98974.66;4936574;28;20009;-82
2022/01/04 04:28:20;;;;;;;;;;;10.70;99.90;;;11.15;100.00;98976.13;4937121;28;19930;-85
2022/01/04 04:30:47;;;;;;;;;;;11.40;99.90;;;11.08;100.00;98974.72;4936861;28;19930;-83
2022/01/04 04:33:14;;;;;;;;;;;11.20;99.90;;;11.07;100.00;98962.47;4950651;28;19926;-85
2022/01/04 04:35:41;;;;;;;;;;;10.70;99.90;;;11.01;100.00;98973.31;4935327;28;20322;-80
2022/01/04 04:38:08;;;;;;;;;;;10.10;99.90;;;11.07;100.00;98954.59;4951800;28;20386;-83
2022/01/04 04:40:35;;;;;;;;;;;12.60;99.90;;;11.11;100.00;98947.41;4936451;28;19930;-82
2022/01/04 04:43:02;;;;;;;;;;;10.70;99.90;;;11.04;100.00;98942.44;4936355;28;19930;-84
2022/01/04 04:45:29;;;;;;;;;;;13.20;99.90;;;11.06;100.00;98953.75;4937363;28;19930;-83
2022/01/04 04:47:57;;;;;;;;;;;10.70;99.90;;;11.08;100.00;98935.22;4937346;28;19930;-85
2022/01/04 04:50:24;;;;;;;;;;;10.70;99.90;;;11.00;100.00;98932.97;4936771;28;20410;-83
2022/01/04 04:52:51;;;;;;;;;;;10.70;99.90;;;11.07;100.00;98934.41;4951668;28;19930;-84
2022/01/04 04:55:18;;;;;;;;;;;10.70;99.90;;;11.05;100.00;98923.09;5017876;28;19930;-83
2022/01/04 04:57:45;;;;;;;;;;;10.70;99.90;;;10.96;100.00;98914.81;4951720;28;20036;-85
2022/01/04 05:00:13;;;;;;;;;;;10.50;99.90;;;10.97;100.00;98903.34;4947737;28;19926;-81
2022/01/04 05:02:41;;;;;;;;;;;8.40;99.90;;;11.07;100.00;98899.31;4928593;28;19937;-83
2022/01/04 05:05:08;;;;;;;;;;;12.70;99.90;;;11.06;100.00;98895.84;4929264;29;20343;-83
2022/01/04 05:07:35;;;;;;;;;;;10.00;99.90;;;11.05;100.00;98888.88;4929613;29;20037;-83
2022/01/04 05:10:06;;;;;;;;;;;11.60;99.90;;;11.13;100.00;98882.38;4913911;29;20013;-81
2022/01/04 05:12:33;;;;;;;;;;;10.70;99.90;;;11.13;100.00;98872.69;4931979;28;20882;-82
2022/01/04 05:15:02;;;;;;;;;;;10.90;99.90;;;11.06;100.00;98866.03;4947900;29;19930;-83
2022/01/04 05:17:29;;;;;;;;;;;11.00;99.90;;;11.16;100.00;98871.69;4933024;28;19942;-81
2022/01/04 05:19:56;;;;;;;;;;;12.30;99.90;;;11.11;100.00;98861.41;4948285;29;20402;-81
2022/01/04 05:22:23;;;;;;;;;;;10.60;99.90;;;11.19;100.00;98871.53;4947785;29;19933;-82
2022/01/04 05:24:50;;;;;;;;;;;10.70;99.90;;;11.15;100.00;98862.09;4947217;28;19941;-84
2022/01/04 05:27:17;;;;;;;;;;;12.10;99.90;;;11.22;100.00;98858.22;4931244;29;20434;-82
2022/01/04 05:29:44;;;;;;;;;;;8.60;99.90;;;11.16;100.00;98840.09;4949008;29;19988;-85
2022/01/04 05:32:11;;;;;;;;;;;10.10;99.90;;;11.16;100.00;98840.94;4948161;29;19931;-84
2022/01/04 05:34:38;;;;;;;;;;;10.80;99.90;;;11.19;100.00;98838.16;4931398;29;19926;-84
2022/01/04 05:37:05;;;;;;;;;;;11.50;99.90;;;11.29;100.00;98832.44;4934506;29;19970;-82
2022/01/04 05:39:32;;;;;;;;;;;10.80;99.90;;;11.34;100.00;98833.03;4952381;28;19934;-82
2022/01/04 05:42:00;;;;;;;;;;;10.90;99.90;;;11.30;100.00;98820.97;4947133;29;19930;-81
2022/01/04 05:44:27;;;;;;;;;;;11.10;99.90;;;11.28;100.00;98815.78;4946858;28;19930;-85
2022/01/04 05:46:54;;;;;;;;;;;10.90;99.90;;;11.33;100.00;98821.66;4947383;29;20390;-81
2022/01/04 05:49:21;;;;;;;;;;;10.90;99.90;;;11.26;100.00;98814.16;4963653;28;20764;-82
2022/01/04 05:51:48;;;;;;;;;;;9.30;99.90;;;11.29;100.00;98804.31;4931170;29;19937;-82
2022/01/04 05:54:15;;;;;;;;;;;10.90;99.90;;;11.29;100.00;98803.47;4931229;29;19930;-82
2022/01/04 05:56:41;;;;;;;;;;;10.90;99.90;;;11.35;100.00;98805.78;4947198;28;19931;-82
2022/01/04 05:59:08;;;;;;;;;;;10.90;99.90;;;11.41;100.00;98807.25;4931236;29;19926;-84
2022/01/04 06:01:35;;;;;;;;;;;11.00;99.90;;;11.46;100.00;98797.31;4947205;28;19930;-84
2022/01/04 06:04:02;;;;;;;;;;;11.00;99.90;;;11.46;100.00;98797.31;4930416;29;19946;-81
2022/01/04 06:06:29;;;;;;;;;;;9.10;99.90;;;11.44;100.00;98786.88;4947387;29;19976;-83
2022/01/04 06:08:57;;;;;;;;;;;11.00;99.90;;;11.49;100.00;98781.38;4935075;28;20029;-82
2022/01/04 06:16:55;;;;;;;;;;;12.80;99.90;;;11.53;100.00;98763.59;4946114;28;20029;-80
2022/01/04 06:19:22;;;;;;;;;;;11.10;99.90;;;11.57;100.00;98767.78;4930884;29;20030;-81
2022/01/04 06:21:49;;;;;;;;;;;11.10;99.90;;;11.57;100.00;98771.25;4946298;29;19937;-81
2022/01/04 06:24:16;;;;;;;;;;;11.00;99.90;;;11.48;100.00;98766.50;4960928;28;19930;-80
2022/01/04 06:26:43;;;;;;;;;;;11.00;99.90;;;11.52;100.00;98760.13;4946481;29;20037;-80
2022/01/04 06:29:11;;;;;;;;;;;11.10;99.90;;;11.56;100.00;98759.00;4946061;29;20611;-79
2022/01/04 06:31:41;;;;;;;;;;;12.90;99.90;;;11.56;100.00;98752.91;4946736;29;20323;-81
2022/01/04 06:34:09;;;;;;;;;;;11.00;99.90;;;11.48;100.00;98743.63;4944994;29;19930;-81
2022/01/04 06:36:35;;;;;;;;;;;11.10;99.90;;;11.55;100.00;98741.50;4946058;29;20496;-80
2022/01/04 06:39:03;;;;;;;;;;;11.80;99.90;;;11.51;100.00;98740.00;4947056;28;20033;-81
2022/01/04 06:41:30;;;;;;;;;;;9.30;99.90;;;11.53;100.00;98735.47;4946005;28;19931;-81
2022/01/04 06:43:56;;;;;;;;;;;11.00;99.90;;;11.53;100.00;98737.25;4931015;29;19953;-81
2022/01/04 06:46:25;;;;;;;;;;;11.10;99.90;;;11.51;100.00;98726.81;4946592;28;20347;-80
2022/01/04 06:48:52;;;;;;;;;;;11.50;99.90;;;11.59;100.00;98724.59;4946437;29;20301;-80
2022/01/04 06:51:19;;;;;;;;;;;11.20;99.90;;;11.54;100.00;98725.78;4946474;29;20021;-79
2022/01/04 06:53:46;;;;;;;;;;;11.10;99.90;;;11.59;100.00;98718.50;4961478;28;20291;-79
2022/01/04 06:56:14;;;;;;;;;;;11.10;99.90;;;11.57;100.00;98721.19;4941787;29;20524;-79
2022/01/04 06:58:40;;;;;;;;;;;12.10;99.90;;;11.62;100.00;98715.69;4962395;28;20046;-79
2022/01/04 07:01:07;;;;;;;;;;;11.20;99.90;;;11.60;100.00;98714.94;4946990;28;20386;-79
2022/01/04 07:03:35;;;;;;;;;;;11.10;99.90;;;11.59;100.00;98711.44;4933280;28;20616;-79
2022/01/04 07:06:02;;;;;;;;;;;11.60;99.90;;;11.61;100.00;98712.19;4965910;28;19937;-78
2022/01/04 07:08:29;;;;;;;;;;;11.10;99.90;;;11.56;100.00;98697.59;4965596;28;19934;-80
2022/01/04 07:10:56;;;;;;;;;;;11.20;99.90;;;11.57;100.00;98700.13;4965106;28;19930;-78
2022/01/04 07:13:22;;;;;;;;;;;11.20;99.90;;;11.60;100.00;98699.97;4948808;28;19930;-79
2022/01/04 07:15:50;;;;;;;;;;;12.30;99.90;;;11.68;100.00;98696.06;4949534;28;20386;-79
2022/01/04 07:18:17;;;;;;;;;;;11.20;99.90;;;11.65;100.00;98699.72;4942189;29;20383;-79
2022/01/04 07:20:44;;;;;;;;;;;11.20;99.90;;;11.58;100.00;98690.47;4978639;28;20536;-78
2022/01/04 07:23:11;;;;;;;;;;;11.70;99.90;;;11.61;100.00;98685.00;4978762;28;19936;-78
2022/01/04 07:25:38;;;;;;;;;;;11.20;99.90;;;11.61;100.00;98704.28;4950645;28;19931;-78
2022/01/04 07:28:05;;;;;;;;;;;11.50;99.90;;;11.60;100.00;98684.16;4982200;28;19930;-78
2022/01/04 07:30:32;;;;;;;;;;;11.20;99.90;;;11.67;100.00;98674.13;4949233;28;19948;-79
2022/01/04 07:32:59;;;;;;;;;;;11.50;99.90;;;11.67;100.00;98671.50;4982276;28;19933;-82
2022/01/04 07:35:26;;;;;;;;;;;11.20;99.90;;;11.68;100.00;98662.66;4965550;28;19931;-78
2022/01/04 07:37:53;;;;;;;;;;;11.20;99.90;;;11.66;100.00;98664.53;4965414;28;19930;-79
2022/01/04 07:40:20;;;;;;;;;;;11.30;99.90;;;11.67;100.00;98668.03;4966357;28;19930;-79
2022/01/04 07:42:47;;;;;;;;;;;11.20;99.90;;;11.69;100.00;98671.41;4982197;28;19935;-79
2022/01/04 07:45:15;;;;;;;;;;;11.30;99.90;;;11.72;100.00;98676.50;4967358;28;19938;-79
2022/01/04 07:47:42;;;;;;;;;;;12.20;99.90;;;11.70;100.00;98681.03;4965743;28;20049;-79
2022/01/04 07:50:11;;;;;;;;;;;11.30;99.90;;;11.68;100.00;98672.34;4961688;28;19933;-79
2022/01/04 07:52:38;;;;;;;;;;;11.30;99.90;;;11.64;100.00;98676.94;4948844;29;19930;-78
2022/01/04 07:55:05;;;;;;;;;;;11.30;99.90;;;11.65;100.00;98662.00;4932663;29;20022;-79
2022/01/04 07:57:32;;;;;;;;;;;11.30;99.90;;;11.77;100.00;98658.66;4950320;29;19938;-79
2022/01/04 07:59:59;;;;;;;;;;;11.30;99.90;;;11.71;100.00;98656.38;4951511;29;19933;-82
2022/01/04 08:02:26;;;;;;;;;;;13.60;99.90;;;11.80;100.00;98649.72;4938476;29;19931;-83
2022/01/04 08:04:53;;;;;;;;;;;11.30;99.90;;;11.71;100.00;98645.84;4950962;29;19949;-80
2022/01/04 08:07:20;;;;;;;;;;;11.80;99.90;;;11.80;100.00;98644.47;4937065;29;20033;-80
2022/01/04 08:09:47;;;;;;;;;;;11.30;99.90;;;11.78;100.00;98637.50;4920831;29;19935;-80
2022/01/04 08:12:14;;;;;;;;;;;12.00;99.90;;;11.82;100.00;98643.44;4935911;29;20054;-81
2022/01/04 08:14:42;;;;;;;;;;;11.40;99.90;;;11.85;100.00;98637.13;4952135;28;19981;-79
2022/01/04 08:17:09;;;;;;;;;;;11.30;99.90;;;11.86;100.00;98639.69;4921634;29;19969;-83
2022/01/04 08:19:36;;;;;;;;;;;11.70;99.90;;;11.87;100.00;98624.75;4938372;29;20017;-81
2022/01/04 08:22:07;;;;;;;;;;;11.40;99.90;;;11.77;100.00;98625.25;4973282;28;19926;-82
2022/01/04 08:24:34;;;;;;;;;;;11.40;99.90;;;11.83;100.00;98621.44;4951589;28;20018;-80
2022/01/04 08:27:01;;;;;;;;;;;10.30;99.90;;;11.83;100.00;98610.03;4950428;28;19934;-79
2022/01/04 08:29:29;;;;;;;;;;;11.40;99.90;;;11.96;100.00;98620.72;4964050;28;19934;-80
2022/01/04 08:31:58;;;;;;;;;;;11.40;99.90;;;11.88;100.00;98608.81;4963512;28;20643;-80
2022/01/04 08:34:25;;;;;;;;;;;11.70;99.90;;;11.89;100.00;98602.63;4963615;28;20373;-79
2022/01/04 08:36:52;;;;;;;;;;;10.10;99.90;;;11.98;100.00;98601.22;4962360;28;19984;-80
2022/01/04 08:39:20;;;;;;;;;;;11.40;99.90;;;11.86;100.00;98589.63;4979539;28;19965;-79
2022/01/04 08:41:50;;;;;;;;;;;11.90;99.90;;;11.96;100.00;98594.38;4963365;28;19931;-79
2022/01/04 08:44:17;;;;;;;;;;;11.50;99.90;;;11.97;100.00;98591.63;4962739;28;19927;-78
2022/01/04 08:46:43;;;;;;;;;;;11.50;99.90;;;11.98;100.00;98574.88;4963053;28;19941;-79
2022/01/04 08:49:10;;;;;;;;;;;11.50;99.90;;;12.02;100.00;98578.22;4951382;28;20465;-78
2022/01/04 08:51:37;;;;;;;;;;;11.60;99.90;;;12.06;100.00;98566.56;4932300;29;20403;-79
2022/01/04 08:54:05;;;;;;;;;;;11.50;99.90;;;12.07;100.00;98562.97;4940349;28;20633;-80
2022/01/04 08:56:33;;;;;;;;;;;11.50;99.90;;;12.10;100.00;98572.50;4952998;28;19930;-79
2022/01/04 08:59:00;;;;;;;;;;;11.60;99.90;;;12.11;100.00;98564.50;4968495;28;20739;-79
2022/01/04 09:01:27;;;;;;;;;;;11.50;99.90;;;12.12;100.00;98565.34;4954410;28;20037;-79
2022/01/04 09:03:54;;;;;;;;;;;11.60;99.90;;;12.13;100.00;98560.00;4960921;28;20061;-79
2022/01/04 09:06:22;;;;;;;;;;;11.60;99.90;;;12.09;100.00;98565.53;4954627;28;19935;-78
2022/01/04 09:08:50;;;;;;;;;;;12.20;99.90;;;12.13;100.00;98557.34;4943516;28;19930;-78
2022/01/04 09:11:21;;;;;;;;;;;11.60;99.90;;;12.18;100.00;98550.00;4934881;29;19935;-78
2022/01/04 09:13:49;;;;;;;;;;;11.70;99.90;;;12.12;100.00;98550.38;4939499;29;19935;-78
2022/01/04 09:18:49;;;;;;;;;;;11.70;99.90;;;12.14;100.00;98534.47;4932780;29;19969;-78
2022/01/04 09:21:24;;;;;;;;;;;11.70;99.90;;;12.14;100.00;98543.22;4947942;29;19938;-79
2022/01/04 09:23:53;;;;;;;;;;;11.60;99.90;;;12.16;100.00;98540.47;4932179;29;20025;-78
2022/01/04 09:26:22;;;;;;;;;;;11.70;99.90;;;12.19;100.00;98540.31;4974900;28;19931;-78
2022/01/04 09:28:50;;;;;;;;;;;11.70;99.90;;;12.19;100.00;98541.16;4947771;29;20307;-78
2022/01/04 09:31:22;;;;;;;;;;;11.70;99.90;;;12.18;100.00;98542.09;4946690;28;19937;-78
2022/01/04 09:33:50;;;;;;;;;;;11.70;99.90;;;12.15;100.00;98551.97;4931676;29;19933;-78
2022/01/04 09:36:38;;;;;;;;;;;11.70;99.90;;;12.25;100.00;98534.66;4914895;29;19934;-78
2022/01/04 09:39:08;;;;;;;;;;;11.70;99.90;;;12.23;100.00;98539.19;4913273;29;19978;-78
2022/01/04 09:41:36;;;;;;;;;;;11.70;99.90;;;12.22;100.00;98531.38;4955065;28;20010;-78
2022/01/04 09:44:04;;;;;;;;;;;12.00;99.90;;;12.22;100.00;98531.38;5013064;28;20342;-79
2022/01/04 09:46:32;;;;;;;;;;;11.80;99.90;;;12.22;100.00;98528.72;4946262;29;19972;-79
2022/01/04 09:48:59;;;;;;;;;;;11.70;99.90;;;12.34;100.00;98531.50;4930161;29;19927;-78
2022/01/04 09:51:27;;;;;;;;;;;13.00;99.90;;;12.26;100.00;98533.72;4946110;29;20640;-78
2022/01/04 09:53:54;;;;;;;;;;;11.80;99.90;;;12.35;100.00;98540.22;4930144;29;19938;-78
2022/01/04 09:56:21;;;;;;;;;;;11.30;99.90;;;12.30;100.00;98532.59;4946744;28;19933;-78
2022/01/04 09:58:48;;;;;;;;;;;11.80;99.90;;;12.33;100.00;98524.53;4945458;29;19970;-78
2022/01/04 10:01:23;;;;;;;;;;;11.90;99.90;;;12.37;100.00;98529.59;4945515;28;20053;-79
2022/01/04 10:04:11;;;;;;;;;;;11.90;99.90;;;12.42;100.00;98524.88;4926830;29;19938;-78
2022/01/04 10:06:39;;;;;;;;;;;11.90;99.90;;;12.35;100.00;98516.50;4911659;28;20504;-78
2022/01/04 10:09:11;;;;;;;;;;;11.90;99.90;;;12.37;100.00;98514.59;5029822;28;20007;-79
2022/01/04 10:11:43;;;;;;;;;;;12.00;99.90;;;12.48;100.00;98519.22;5005711;28;19973;-79
2022/01/04 10:14:26;;;;;;;;;;;12.00;99.90;;;12.53;100.00;98511.88;4966577;28;19931;-78
2022/01/04 10:17:02;;;;;;;;;;;12.00;99.90;;;12.51;100.00;98510.28;4965281;28;20045;-79
2022/01/04 10:19:34;;;;;;;;;;;12.10;99.90;;;12.52;100.00;98515.47;4934649;29;19973;-78
2022/01/04 10:22:26;;;;;;;;;;;10.30;99.90;;;12.63;100.00;98502.44;4933088;29;19930;-79
2022/01/04 10:25:03;;;;;;;;;;;12.10;99.90;;;12.73;100.00;98502.75;4972023;28;19940;-79
2022/01/04 10:27:35;;;;;;;;;;;15.00;99.90;;;12.59;100.00;98506.22;4935073;29;19954;-78
2022/01/04 10:30:26;;;;;;;;;;;12.20;99.90;;;12.59;100.00;98500.13;4969978;28;19936;-78
2022/01/04 10:32:59;;;;;;;;;;;12.20;99.90;;;12.53;100.00;98508.41;4938091;28;19930;-78
2022/01/04 10:35:30;;;;;;;;;;;12.10;99.90;;;12.59;100.00;98508.84;4952724;28;19978;-79
2022/01/04 10:38:00;;;;;;;;;;;12.10;99.90;;;12.62;100.00;98495.47;4972956;28;20021;-78
2022/01/04 10:40:28;;;;;;;;;;;12.10;99.90;;;12.58;100.00;98501.06;4962947;28;19980;-78
2022/01/04 10:42:56;;;;;;;;;;;12.10;99.90;;;12.53;100.00;98503.97;4958669;28;19938;-80
2022/01/04 10:45:31;;;;;;;;;;;12.20;99.90;;;12.52;100.00;98489.09;4952135;28;20709;-80
2022/01/04 10:48:19;;;;;;;;;;;12.10;99.90;;;12.56;100.00;98506.41;4961248;28;20039;-80
2022/01/04 10:51:11;;;;;;;;;;;12.10;99.90;;;12.51;100.00;98489.19;4953458;28;19941;-80
2022/01/04 10:53:43;;;;;;;;;;;12.10;99.90;;;12.57;100.00;98492.28;4958376;28;19961;-79
2022/01/04 10:56:16;;;;;;;;;;;12.10;99.90;;;12.59;100.00;98508.03;4977609;28;20025;-79
2022/01/04 10:58:45;;;;;;;;;;;12.10;99.90;;;12.56;100.00;98492.38;4945672;28;19930;-80
2022/01/04 11:01:39;;;;;;;;;;;12.10;99.90;;;12.53;100.00;98501.34;4962651;28;19926;-79
2022/01/04 11:04:14;;;;;;;;;;;12.20;99.90;;;12.53;100.00;98505.75;4949721;28;19931;-80
2022/01/04 11:06:42;;;;;;;;;;;12.10;99.90;;;12.49;100.00;98515.66;4920215;29;19931;-80
2022/01/04 11:09:10;;;;;;;;;;;12.10;99.90;;;12.61;100.00;98485.03;4956917;29;19927;-79
2022/01/04 11:11:37;;;;;;;;;;;12.20;99.90;;;12.62;100.00;98507.84;4986669;28;19930;-80
2022/01/04 11:14:06;;;;;;;;;;;13.10;99.90;;;12.60;100.00;98507.09;4949484;28;19926;-79
2022/01/04 11:16:33;;;;;;;;;;;12.20;99.90;;;12.65;100.00;98491.81;4948374;28;19932;-79
2022/01/04 11:19:02;;;;;;;;;;;12.20;99.90;;;12.61;100.00;98480.59;4938439;29;19930;-79
2022/01/04 11:21:43;;;;;;;;;;;12.30;99.90;;;12.70;100.00;98487.06;4956446;29;19933;-80
2022/01/04 11:24:18;;;;;;;;;;;12.20;99.90;;;12.68;100.00;98483.69;4944974;29;19926;-80
2022/01/04 11:26:48;;;;;;;;;;;12.20;99.90;;;12.71;100.00;98482.66;4942081;29;19930;-80